Time;durP1;ratioP1;P1;durP2;ratioP2;P2;SDS_P1;SDS_P2;PMS_P1;PMS_P2;Temp;Humidity;BMP_temperature;BMP_pressure;BME280_temperature;BME280_humidity;BME280_pressure;Samples;Min_cycle;Max_cycle;Signal;HPM_P1;HPM_P2
2022/12/28 00:01:10;;;;;;;0.13;0.13;;;5.10;99.90;;;;;;5154621;27;20042;-79
2022/12/28 00:03:36;;;;;;;0.00;0.00;;;5.10;99.90;;;;;;5154198;27;20049;-79
2022/12/28 00:06:03;;;;;;;0.00;0.00;;;5.10;99.90;;;;;;5154936;27;20456;-79
2022/12/28 00:08:28;;;;;;;0.15;0.15;;;5.10;99.90;;;;;;5154309;27;20034;-79
2022/12/28 00:11:00;;;;;;;2.90;1.08;;;5.10;99.90;;;;;;5154685;27;20122;-79
2022/12/28 00:13:25;;;;;;;0.32;0.22;;;5.10;99.90;;;;;;5154675;27;20492;-79
2022/12/28 00:15:51;;;;;;;0.57;0.57;;;5.10;99.90;;;;;;5158047;27;20051;-79
2022/12/28 00:18:17;;;;;;;0.10;0.10;;;5.10;99.90;;;;;;5158467;27;20125;-79
2022/12/28 00:20:42;;;;;;;0.20;0.20;;;5.10;99.90;;;;;;5158690;27;20043;-79
2022/12/28 00:23:08;;;;;;;0.52;0.30;;;5.00;99.90;;;;;;5158992;27;20066;-80
2022/12/28 00:25:35;;;;;;;0.00;0.00;;;5.10;99.90;;;;;;5159575;27;20053;-79
2022/12/28 00:28:01;;;;;;;0.32;0.32;;;5.00;99.90;;;;;;5158667;27;20070;-79
2022/12/28 00:30:27;;;;;;;2.05;1.50;;;5.00;99.90;;;;;;5157853;27;20039;-79
2022/12/28 00:32:52;;;;;;;0.43;0.43;;;5.00;99.90;;;;;;5158073;27;20121;-79
2022/12/28 00:35:18;;;;;;;0.00;0.00;;;5.00;99.90;;;;;;5157781;27;20043;-79
2022/12/28 00:37:43;;;;;;;0.22;0.22;;;5.00;99.90;;;;;;5157513;27;20046;-79
2022/12/28 00:40:09;;;;;;;0.20;0.20;;;5.00;99.90;;;;;;5157854;27;20034;-79
2022/12/28 00:42:35;;;;;;;0.20;0.20;;;5.00;99.90;;;;;;5157714;27;20046;-79
2022/12/28 00:45:00;;;;;;;0.93;0.85;;;5.00;99.90;;;;;;5157914;27;20070;-79
2022/12/28 00:47:26;;;;;;;0.00;0.00;;;5.10;99.90;;;;;;5157859;27;20516;-79
2022/12/28 00:49:52;;;;;;;0.30;0.30;;;5.10;99.90;;;;;;5139421;27;20049;-79
2022/12/28 00:52:17;;;;;;;15.70;1.17;;;5.50;99.90;;;;;;5158143;27;20039;-79
2022/12/28 00:54:43;;;;;;;0.55;0.55;;;5.10;99.90;;;;;;5157970;27;20050;-79
2022/12/28 00:57:08;;;;;;;0.20;0.20;;;5.10;99.90;;;;;;5157663;27;20469;-79
2022/12/28 00:59:34;;;;;;;0.20;0.20;;;5.10;99.90;;;;;;5157503;27;20362;-79
2022/12/28 01:01:59;;;;;;;0.10;0.10;;;5.10;99.90;;;;;;5157211;27;20095;-79
2022/12/28 01:04:25;;;;;;;0.05;0.05;;;5.10;99.90;;;;;;5157908;27;20042;-79
2022/12/28 01:06:51;;;;;;;0.00;0.00;;;5.10;99.90;;;;;;5157578;27;20043;-79
2022/12/28 01:09:16;;;;;;;0.70;0.65;;;5.10;99.90;;;;;;5157826;27;20093;-79
2022/12/28 01:11:42;;;;;;;1.17;0.80;;;5.20;99.90;;;;;;5157680;27;20122;-79
2022/12/28 01:14:07;;;;;;;0.05;0.05;;;5.20;99.90;;;;;;5157973;27;20042;-79
2022/12/28 01:16:35;;;;;;;0.65;0.65;;;5.20;99.90;;;;;;5144130;27;20054;-79
2022/12/28 01:19:03;;;;;;;0.70;0.70;;;5.30;99.90;;;;;;5139912;27;20049;-79
2022/12/28 01:21:30;;;;;;;0.68;0.38;;;5.30;99.90;;;;;;5141614;27;20073;-79
2022/12/28 01:23:58;;;;;;;0.15;0.15;;;5.30;99.90;;;;;;5141418;27;20054;-79
2022/12/28 01:26:25;;;;;;;0.20;0.20;;;5.20;99.90;;;;;;5142309;27;20043;-79
2022/12/28 01:28:51;;;;;;;1.48;1.38;;;5.20;99.90;;;;;;5142200;27;20042;-79
2022/12/28 01:31:18;;;;;;;0.10;0.10;;;5.20;99.90;;;;;;5142328;27;20478;-79
2022/12/28 01:33:44;;;;;;;0.00;0.00;;;5.30;99.90;;;;;;5141493;27;20122;-79
2022/12/28 01:36:15;;;;;;;0.00;0.00;;;5.40;99.90;;;;;;5141684;27;20043;-80
2022/12/28 01:38:42;;;;;;;0.10;0.10;;;5.40;99.90;;;;;;5141379;27;20043;-79
2022/12/28 01:41:10;;;;;;;2.30;0.75;;;5.30;99.90;;;;;;5141263;27;20497;-79
2022/12/28 01:43:41;;;;;;;0.00;0.00;;;5.40;99.90;;;;;;5142085;27;20040;-79
2022/12/28 01:46:10;;;;;;;0.05;0.05;;;6.60;99.90;;;;;;5141706;27;20506;-79
2022/12/28 01:48:42;;;;;;;0.65;0.38;;;5.40;99.90;;;;;;5141742;27;20039;-80
2022/12/28 01:51:08;;;;;;;0.75;0.75;;;5.40;99.90;;;;;;5142664;27;20047;-80
2022/12/28 01:53:33;;;;;;;0.45;0.45;;;5.40;99.90;;;;;;5142673;27;20088;-80
2022/12/28 01:55:59;;;;;;;0.25;0.20;;;5.40;99.90;;;;;;5142889;27;20078;-79
2022/12/28 01:58:29;;;;;;;0.10;0.10;;;5.40;99.90;;;;;;5142744;27;20043;-79
2022/12/28 02:00:54;;;;;;;0.05;0.05;;;5.40;99.90;;;;;;5142096;27;20062;-79
2022/12/28 02:03:24;;;;;;;0.00;0.00;;;5.40;99.90;;;;;;5141356;27;20047;-79
2022/12/28 02:05:54;;;;;;;0.40;0.38;;;5.40;99.90;;;;;;5141843;27;20122;-79
2022/12/28 02:08:43;;;;;;;1.58;0.90;;;5.30;99.90;;;;;;5141615;27;20097;-79
2022/12/28 02:11:13;;;;;;;1.95;1.10;;;5.40;99.90;;;;;;5149174;27;20031;-79
2022/12/28 02:13:42;;;;;;;0.32;0.32;;;5.40;99.90;;;;;;5161572;27;20366;-79
2022/12/28 02:16:09;;;;;;;1.27;1.10;;;5.50;99.90;;;;;;5161739;27;20051;-79
2022/12/28 02:18:35;;;;;;;1.05;0.75;;;5.60;99.90;;;;;;5161154;27;20091;-79
2022/12/28 02:21:14;;;;;;;0.10;0.10;;;5.60;99.90;;;;;;5160982;27;20042;-79
2022/12/28 02:24:17;;;;;;;0.00;0.00;;;5.60;99.90;;;;;;5161920;27;20381;-80
2022/12/28 02:26:55;;;;;;;0.40;0.40;;;5.50;99.90;;;;;;5161753;27;20397;-80
2022/12/28 02:29:39;;;;;;;1.73;1.40;;;5.50;99.90;;;;;;5161512;27;20050;-80
2022/12/28 02:32:10;;;;;;;0.30;0.30;;;5.60;99.90;;;;;;5160586;27;20505;-80
2022/12/28 02:34:44;;;;;;;1.35;0.98;;;5.60;99.90;;;;;;5161257;27;20122;-80
2022/12/28 02:37:21;;;;;;;0.75;0.57;;;6.70;99.90;;;;;;5161341;27;20050;-80
2022/12/28 02:39:53;;;;;;;0.50;0.50;;;5.60;99.90;;;;;;5161527;27;20038;-80
2022/12/28 02:42:22;;;;;;;0.10;0.10;;;5.60;99.90;;;;;;5161419;27;20045;-80
2022/12/28 02:50:19;;;;;;;0.20;0.20;;;5.60;99.90;;;;;;5162854;27;20050;-80
2022/12/28 02:53:09;;;;;;;0.28;0.20;;;5.70;99.90;;;;;;5162504;27;20381;-80
2022/12/28 02:59:11;;;;;;;0.77;0.50;;;5.60;99.90;;;;;;5161901;27;20049;-80
2022/12/28 03:01:51;;;;;;;0.00;0.00;;;5.70;99.90;;;;;;5162350;27;20050;-80
2022/12/28 03:04:57;;;;;;;0.57;0.57;;;5.70;99.90;;;;;;5162453;27;20043;-80
2022/12/28 03:10:51;;;;;;;0.08;0.08;;;5.80;99.90;;;;;;5161688;27;20061;-81
2022/12/28 03:13:44;;;;;;;0.13;0.13;;;5.80;99.90;;;;;;5161629;27;20035;-81
2022/12/28 03:16:24;;;;;;;0.35;0.35;;;5.80;99.90;;;;;;5160778;27;20054;-80
2022/12/28 03:32:55;;;;;;;1.10;1.08;;;6.00;99.90;;;;;;5161774;27;20046;-81
2022/12/28 03:35:36;;;;;;;0.25;0.25;;;5.90;99.90;;;;;;5161838;27;20043;-82
2022/12/28 03:38:03;;;;;;;0.00;0.00;;;6.00;99.90;;;;;;5161452;27;20053;-81
2022/12/28 03:40:42;;;;;;;0.90;0.52;;;6.00;99.90;;;;;;5160356;27;20469;-81
2022/12/28 03:46:12;;;;;;;0.38;0.38;;;6.10;99.90;;;;;;5161125;27;20466;-80
2022/12/28 03:48:38;;;;;;;0.00;0.00;;;6.10;99.90;;;;;;5161421;27;20047;-79
2022/12/28 03:51:04;;;;;;;0.35;0.30;;;6.10;99.90;;;;;;5159373;27;20034;-79
2022/12/28 03:53:46;;;;;;;0.52;0.40;;;6.20;99.90;;;;;;5159182;27;20038;-79
2022/12/28 03:56:14;;;;;;;0.45;0.45;;;6.20;99.90;;;;;;5159181;27;20046;-79
2022/12/28 03:58:40;;;;;;;0.93;0.93;;;6.20;99.90;;;;;;5159468;27;20122;-80
2022/12/28 04:01:06;;;;;;;0.80;0.65;;;6.30;99.90;;;;;;5160043;27;20067;-80
2022/12/28 04:03:32;;;;;;;0.05;0.03;;;6.30;99.90;;;;;;5159162;27;20092;-80
2022/12/28 04:05:57;;;;;;;0.43;0.43;;;6.20;99.90;;;;;;5159430;27;20038;-80
2022/12/28 04:08:23;;;;;;;0.10;0.10;;;6.30;99.90;;;;;;5158891;27;20113;-79
2022/12/28 04:10:49;;;;;;;0.00;0.00;;;6.40;99.90;;;;;;5158271;27;20584;-80
2022/12/28 04:13:14;;;;;;;0.22;0.22;;;6.40;99.90;;;;;;5158207;27;20144;-80
2022/12/28 04:15:40;;;;;;;0.10;0.10;;;6.40;99.90;;;;;;5158501;27;20030;-80
2022/12/28 04:18:05;;;;;;;0.13;0.13;;;6.40;99.90;;;;;;5139749;27;20081;-79
2022/12/28 04:20:31;;;;;;;1.08;0.35;;;6.50;99.90;;;;;;5158735;27;20056;-79
2022/12/28 04:22:56;;;;;;;0.13;0.13;;;6.50;99.90;;;;;;5159047;27;20537;-80
2022/12/28 04:25:22;;;;;;;0.03;0.03;;;6.50;99.90;;;;;;5159171;27;20046;-80
2022/12/28 04:27:48;;;;;;;0.00;0.00;;;6.50;99.90;;;;;;5158678;27;20744;-79
2022/12/28 04:30:13;;;;;;;0.10;0.10;;;6.60;99.90;;;;;;5158806;27;20050;-79
2022/12/28 04:32:39;;;;;;;0.55;0.20;;;6.50;99.90;;;;;;5158651;27;20070;-79
2022/12/28 04:35:05;;;;;;;0.08;0.08;;;6.60;99.90;;;;;;5161504;27;20043;-80
2022/12/28 04:37:30;;;;;;;0.08;0.08;;;6.60;99.90;;;;;;5163306;27;20071;-80
2022/12/28 04:39:56;;;;;;;0.22;0.22;;;6.60;99.90;;;;;;5163667;27;20047;-80
2022/12/28 04:42:22;;;;;;;0.13;0.13;;;6.60;99.90;;;;;;5162987;27;20039;-80
2022/12/28 04:44:47;;;;;;;0.00;0.00;;;6.60;99.90;;;;;;5162341;27;20119;-79
2022/12/28 04:47:13;;;;;;;0.00;0.00;;;6.60;99.90;;;;;;5160871;27;20047;-79
2022/12/28 04:49:38;;;;;;;2.60;0.68;;;6.60;99.90;;;;;;5161610;27;20126;-80
2022/12/28 04:52:04;;;;;;;0.20;0.20;;;6.70;99.90;;;;;;5162047;27;20035;-79
2022/12/28 04:54:30;;;;;;;0.10;0.10;;;6.70;99.90;;;;;;5160725;27;20047;-80
2022/12/28 04:56:55;;;;;;;0.00;0.00;;;6.70;99.90;;;;;;5161156;27;20034;-80
2022/12/28 04:59:21;;;;;;;0.00;0.00;;;6.70;99.90;;;;;;5161128;27;20045;-79
2022/12/28 05:01:46;;;;;;;0.10;0.10;;;6.80;99.90;;;;;;5161048;27;20046;-80
2022/12/28 05:04:12;;;;;;;0.08;0.08;;;6.80;99.90;;;;;;5162674;27;20524;-79
2022/12/28 05:06:38;;;;;;;0.20;0.20;;;6.80;99.90;;;;;;5163555;27;20043;-80
2022/12/28 05:09:03;;;;;;;0.00;0.00;;;6.80;99.90;;;;;;5163257;27;20030;-80
2022/12/28 05:11:30;;;;;;;0.60;0.60;;;6.90;99.90;;;;;;5162829;27;20466;-80
2022/12/28 05:13:56;;;;;;;0.28;0.28;;;6.90;99.90;;;;;;5161362;27;20091;-80
2022/12/28 05:16:24;;;;;;;0.70;0.35;;;6.90;99.90;;;;;;5161238;27;20042;-80
2022/12/28 05:18:50;;;;;;;0.08;0.08;;;6.90;99.90;;;;;;5160855;27;20118;-79
2022/12/28 05:21:22;;;;;;;0.40;0.40;;;7.00;99.90;;;;;;5160787;27;20570;-80
2022/12/28 05:23:48;;;;;;;0.57;0.38;;;7.00;99.90;;;;;;5159124;27;20042;-79
2022/12/28 05:26:17;;;;;;;0.20;0.20;;;7.10;99.90;;;;;;5159632;27;20038;-79
2022/12/28 05:28:43;;;;;;;0.52;0.40;;;7.10;99.90;;;;;;5160095;27;20043;-79
2022/12/28 05:31:14;;;;;;;1.95;0.52;;;7.10;99.90;;;;;;5160580;27;20043;-79
2022/12/28 05:33:41;;;;;;;0.20;0.20;;;7.10;99.90;;;;;;5161545;27;20482;-79
2022/12/28 05:36:13;;;;;;;0.60;0.32;;;7.20;99.90;;;;;;5162337;27;20043;-80
2022/12/28 05:38:39;;;;;;;0.32;0.32;;;7.20;99.90;;;;;;5161542;27;20096;-80
2022/12/28 05:41:07;;;;;;;0.10;0.10;;;7.20;99.90;;;;;;5162770;27;20050;-80
2022/12/28 05:43:33;;;;;;;0.20;0.20;;;7.20;99.90;;;;;;5161624;27;20125;-80
2022/12/28 05:46:07;;;;;;;0.10;0.10;;;7.30;99.90;;;;;;5160560;27;20046;-80
2022/12/28 05:48:35;;;;;;;0.28;0.28;;;7.40;99.90;;;;;;5158345;27;20546;-79
2022/12/28 05:51:03;;;;;;;0.20;0.20;;;7.40;99.90;;;;;;5158725;27;20068;-79
2022/12/28 05:53:30;;;;;;;0.20;0.20;;;7.40;99.90;;;;;;5139247;27;20062;-79
2022/12/28 05:56:17;;;;;;;0.47;0.47;;;7.40;99.90;;;;;;5158526;27;20038;-79
2022/12/28 05:58:44;;;;;;;0.00;0.00;;;7.40;99.90;;;;;;5158041;27;20050;-79
2022/12/28 06:01:16;;;;;;;0.30;0.25;;;7.40;99.90;;;;;;5157973;27;20034;-79
2022/12/28 06:03:43;;;;;;;0.60;0.60;;;7.50;99.90;;;;;;5158301;27;20050;-79
2022/12/28 06:06:15;;;;;;;0.43;0.30;;;7.50;99.90;;;;;;5161903;27;20078;-79
2022/12/28 06:08:42;;;;;;;0.38;0.38;;;7.50;99.90;;;;;;5162228;27;20047;-79
2022/12/28 06:11:11;;;;;;;0.00;0.00;;;7.60;99.90;;;;;;5162351;27;20038;-79
2022/12/28 06:13:36;;;;;;;0.50;0.32;;;7.70;99.90;;;;;;5162446;27;20043;-79
2022/12/28 06:16:30;;;;;;;0.90;0.65;;;7.70;99.90;;;;;;5161573;27;20126;-79
2022/12/28 06:18:56;;;;;;;0.20;0.20;;;7.70;99.90;;;;;;5156200;27;20051;-79
2022/12/28 06:21:25;;;;;;;0.73;0.20;;;8.30;99.90;;;;;;5139572;27;20047;-79
2022/12/28 06:23:52;;;;;;;0.65;0.60;;;7.80;99.90;;;;;;5157850;27;20408;-79
2022/12/28 06:26:20;;;;;;;0.52;0.52;;;7.80;99.90;;;;;;5157621;27;20417;-79
2022/12/28 06:28:46;;;;;;;1.30;1.08;;;7.80;99.90;;;;;;5157828;27;20047;-79
2022/12/28 06:31:20;;;;;;;0.32;0.25;;;7.70;99.90;;;;;;5158343;27;20072;-79
2022/12/28 06:33:47;;;;;;;0.38;0.30;;;7.80;99.90;;;;;;5158390;27;20078;-79
2022/12/28 06:36:16;;;;;;;1.02;0.75;;;7.80;99.90;;;;;;5159259;27;20042;-79
2022/12/28 06:38:42;;;;;;;0.10;0.10;;;7.80;99.90;;;;;;5162128;27;20038;-79
2022/12/28 06:41:09;;;;;;;0.57;0.57;;;7.80;99.90;;;;;;5161975;27;20522;-79
2022/12/28 06:43:36;;;;;;;0.10;0.10;;;7.80;99.90;;;;;;5161379;27;20050;-79
2022/12/28 06:46:02;;;;;;;0.20;0.20;;;7.80;99.90;;;;;;5161933;27;20055;-79
2022/12/28 06:48:30;;;;;;;0.08;0.08;;;7.90;99.90;;;;;;5160821;27;20038;-79
2022/12/28 06:51:04;;;;;;;0.00;0.00;;;7.80;99.90;;;;;;5161245;27;20092;-79
2022/12/28 06:53:32;;;;;;;0.20;0.20;;;7.80;99.90;;;;;;5161928;27;20045;-79
2022/12/28 06:56:01;;;;;;;0.03;0.03;;;7.80;99.90;;;;;;5161834;27;20038;-79
2022/12/28 06:58:27;;;;;;;0.75;0.65;;;7.90;99.90;;;;;;5162227;27;20035;-79
2022/12/28 07:00:53;;;;;;;0.20;0.20;;;7.90;99.90;;;;;;5142612;27;20473;-79
2022/12/28 07:03:21;;;;;;;0.40;0.40;;;7.90;99.90;;;;;;5161154;27;20083;-79
2022/12/28 07:05:46;;;;;;;0.13;0.13;;;8.00;99.90;;;;;;5161665;27;20381;-79
2022/12/28 07:08:12;;;;;;;0.47;0.40;;;7.90;99.90;;;;;;5161508;27;20087;-79
2022/12/28 07:10:38;;;;;;;0.65;0.63;;;8.00;99.90;;;;;;5162476;27;20038;-79
2022/12/28 07:13:04;;;;;;;0.20;0.20;;;8.00;99.90;;;;;;5162760;27;20079;-79
2022/12/28 07:15:30;;;;;;;0.70;0.30;;;8.00;99.90;;;;;;5164468;27;20055;-79
2022/12/28 07:17:57;;;;;;;0.20;0.20;;;8.00;99.90;;;;;;5164075;27;20112;-80
2022/12/28 07:20:23;;;;;;;0.68;0.68;;;8.00;99.90;;;;;;5163071;27;20437;-80
2022/12/28 07:22:48;;;;;;;0.10;0.10;;;8.00;99.90;;;;;;5163063;27;20046;-80
2022/12/28 07:25:14;;;;;;;0.10;0.10;;;8.00;99.90;;;;;;5162370;27;20042;-80
2022/12/28 07:27:40;;;;;;;0.30;0.20;;;8.10;99.90;;;;;;5163063;27;20095;-79
2022/12/28 07:30:06;;;;;;;0.22;0.22;;;8.10;99.90;;;;;;5161714;27;20394;-79
2022/12/28 07:32:35;;;;;;;0.22;0.22;;;8.10;99.90;;;;;;5161600;27;20071;-79
2022/12/28 07:35:01;;;;;;;0.30;0.30;;;8.10;99.90;;;;;;5161420;27;20118;-80
2022/12/28 07:37:26;;;;;;;0.35;0.35;;;8.10;99.90;;;;;;5161708;27;20549;-80
2022/12/28 07:39:52;;;;;;;0.00;0.00;;;8.10;99.90;;;;;;5161427;27;20143;-79
2022/12/28 07:42:17;;;;;;;0.00;0.00;;;8.20;99.90;;;;;;5160510;27;20074;-79
2022/12/28 07:44:44;;;;;;;1.40;0.38;;;8.20;99.90;;;;;;5160369;27;20496;-79
2022/12/28 07:47:10;;;;;;;0.70;0.60;;;8.20;99.90;;;;;;5159737;27;20411;-79
2022/12/28 07:49:36;;;;;;;0.17;0.17;;;8.30;99.90;;;;;;5160789;27;20076;-79
2022/12/28 07:52:02;;;;;;;0.93;0.88;;;8.30;99.90;;;;;;5160171;27;20537;-79
2022/12/28 07:54:27;;;;;;;1.55;0.77;;;8.40;99.90;;;;;;5160340;27;20458;-79
2022/12/28 07:56:53;;;;;;;0.50;0.50;;;8.30;99.90;;;;;;5159252;27;20034;-79
2022/12/28 07:59:18;;;;;;;0.17;0.17;;;8.40;99.90;;;;;;5159788;27;20035;-79
2022/12/28 08:01:44;;;;;;;0.90;0.90;;;8.40;99.90;;;;;;5159776;27;20038;-79
2022/12/28 08:04:12;;;;;;;0.35;0.32;;;8.40;99.90;;;;;;5159907;27;20484;-79
2022/12/28 08:06:40;;;;;;;2.08;0.50;;;8.40;99.90;;;;;;5159800;27;20042;-79
2022/12/28 08:09:07;;;;;;;0.13;0.13;;;8.40;99.90;;;;;;5159294;27;20072;-79
2022/12/28 08:11:35;;;;;;;0.32;0.32;;;8.40;99.90;;;;;;5159705;27;20039;-79
2022/12/28 08:14:01;;;;;;;0.50;0.47;;;8.40;99.90;;;;;;5159279;27;20050;-79
2022/12/28 08:16:31;;;;;;;17.17;2.05;;;8.40;99.90;;;;;;5159750;27;20377;-79
2022/12/28 08:18:56;;;;;;;0.40;0.30;;;8.40;99.90;;;;;;5159216;27;20039;-79
2022/12/28 08:21:25;;;;;;;0.13;0.13;;;8.40;99.90;;;;;;5159453;27;20067;-79
2022/12/28 08:23:51;;;;;;;1.13;1.02;;;8.40;99.90;;;;;;5160230;27;20046;-79
2022/12/28 08:26:32;;;;;;;0.10;0.10;;;8.50;99.90;;;;;;5158964;27;20070;-79
2022/12/28 08:29:01;;;;;;;0.17;0.17;;;8.50;99.90;;;;;;5158760;27;20039;-79
2022/12/28 08:31:31;;;;;;;0.65;0.57;;;8.50;99.90;;;;;;5158650;27;20076;-79
2022/12/28 08:33:58;;;;;;;1.35;1.17;;;8.50;99.90;;;;;;5158202;27;20106;-79
2022/12/28 08:36:24;;;;;;;0.38;0.38;;;8.50;99.90;;;;;;5156605;27;20046;-79
2022/12/28 08:38:50;;;;;;;2.03;0.88;;;8.50;99.90;;;;;;5156781;27;20439;-79
2022/12/28 08:41:20;;;;;;;2.08;1.08;;;8.50;99.90;;;;;;5157206;27;20039;-79
2022/12/28 08:43:47;;;;;;;1.35;0.43;;;8.50;99.90;;;;;;5137328;27;20054;-80
2022/12/28 08:46:19;;;;;;;0.63;0.57;;;8.50;99.90;;;;;;5157498;27;20078;-81
2022/12/28 08:48:46;;;;;;;0.20;0.20;;;8.50;99.90;;;;;;5159761;27;20035;-81
2022/12/28 08:51:14;;;;;;;0.10;0.10;;;8.50;99.90;;;;;;5159253;27;20054;-81
2022/12/28 08:53:40;;;;;;;0.08;0.08;;;8.50;99.90;;;;;;5160025;27;20039;-81
2022/12/28 08:56:13;;;;;;;0.88;0.70;;;8.50;99.90;;;;;;5159252;27;20508;-81
2022/12/28 08:58:40;;;;;;;0.43;0.40;;;8.50;99.90;;;;;;5159027;27;20039;-80
2022/12/28 09:01:21;;;;;;;0.00;0.00;;;8.60;99.90;;;;;;5159519;27;20035;-80
2022/12/28 09:03:49;;;;;;;0.38;0.20;;;8.60;99.90;;;;;;5159944;27;20057;-80
2022/12/28 09:06:17;;;;;;;0.17;0.17;;;8.60;99.90;;;;;;5159059;27;20113;-80
2022/12/28 09:08:43;;;;;;;0.32;0.20;;;8.60;99.90;;;;;;5159991;27;20121;-80
2022/12/28 09:11:11;;;;;;;0.00;0.00;;;8.60;99.90;;;;;;5159018;27;20099;-80
2022/12/28 09:13:37;;;;;;;0.47;0.47;;;8.60;99.90;;;;;;5159818;27;20446;-80
2022/12/28 09:16:25;;;;;;;1.23;0.82;;;8.70;99.90;;;;;;5159940;27;20051;-81
2022/12/28 09:18:59;;;;;;;0.03;0.03;;;8.60;99.90;;;;;;5158934;27;20049;-81
2022/12/28 09:21:27;;;;;;;0.00;0.00;;;8.70;99.90;;;;;;5159641;27;20047;-80
2022/12/28 09:23:53;;;;;;;0.75;0.73;;;8.60;99.90;;;;;;5158883;27;20035;-80
2022/12/28 09:26:27;;;;;;;0.65;0.65;;;8.70;99.90;;;;;;5159195;27;20038;-80
2022/12/28 09:28:55;;;;;;;0.20;0.20;;;8.70;99.90;;;;;;5159700;27;20042;-80
2022/12/28 09:31:23;;;;;;;0.63;0.35;;;8.70;99.90;;;;;;5159638;27;20108;-80
2022/12/28 09:33:59;;;;;;;6.50;0.55;;;8.70;99.90;;;;;;5160159;27;20078;-80
2022/12/28 09:36:30;;;;;;;1.42;1.00;;;8.70;99.90;;;;;;5159409;27;20435;-81
2022/12/28 09:38:57;;;;;;;0.00;0.00;;;8.70;99.90;;;;;;5159439;27;20401;-81
2022/12/28 09:41:29;;;;;;;0.75;0.75;;;8.70;99.90;;;;;;5164429;27;20049;-81
2022/12/28 09:44:10;;;;;;;0.13;0.13;;;8.70;99.90;;;;;;5163609;27;20081;-81
2022/12/28 09:46:39;;;;;;;0.00;0.00;;;8.70;99.90;;;;;;5163317;27;20086;-81
2022/12/28 09:49:09;;;;;;;0.20;0.20;;;8.70;99.90;;;;;;5163908;27;20424;-81
2022/12/28 09:51:42;;;;;;;0.00;0.00;;;8.70;99.90;;;;;;5163316;27;20038;-81
2022/12/28 09:54:08;;;;;;;0.10;0.10;;;8.70;99.90;;;;;;5163378;27;20047;-81
2022/12/28 09:56:39;;;;;;;0.00;0.00;;;8.80;99.90;;;;;;5163202;27;20404;-81
2022/12/28 09:59:06;;;;;;;1.52;0.38;;;8.80;99.90;;;;;;5163341;27;20063;-81
2022/12/28 10:01:38;;;;;;;1.98;0.50;;;8.80;99.90;;;;;;5163375;27;20042;-81
2022/12/28 10:04:04;;;;;;;0.10;0.10;;;8.80;99.90;;;;;;5164270;27;20493;-81
2022/12/28 10:06:34;;;;;;;0.00;0.00;;;8.80;99.90;;;;;;5163709;27;20053;-82
2022/12/28 10:09:01;;;;;;;0.22;0.22;;;8.80;99.90;;;;;;5163770;27;20092;-81
2022/12/28 10:11:33;;;;;;;0.10;0.00;;;8.80;99.90;;;;;;5163483;27;20035;-81
2022/12/28 10:14:02;;;;;;;0.10;0.10;;;8.90;99.90;;;;;;5164308;27;20042;-81
2022/12/28 10:16:31;;;;;;;0.10;0.10;;;8.90;99.90;;;;;;5163822;27;20215;-80
2022/12/28 10:18:58;;;;;;;0.17;0.15;;;8.90;99.90;;;;;;5163732;27;20122;-81
2022/12/28 10:21:27;;;;;;;0.10;0.10;;;8.90;99.90;;;;;;5163441;27;20094;-81
2022/12/28 10:23:54;;;;;;;0.00;0.00;;;8.90;99.90;;;;;;5163473;27;20039;-81
2022/12/28 10:26:20;;;;;;;0.00;0.00;;;8.90;99.90;;;;;;5163210;27;20378;-80
2022/12/28 10:28:52;;;;;;;0.00;0.00;;;9.00;99.90;;;;;;5163047;27;20042;-80
2022/12/28 10:31:36;;;;;;;0.70;0.10;;;9.00;99.90;;;;;;5163358;27;20050;-80
2022/12/28 10:34:16;;;;;;;0.55;0.50;;;9.00;99.90;;;;;;5163196;27;20057;-80
2022/12/28 10:36:42;;;;;;;0.25;0.25;;;9.00;99.90;;;;;;5162336;27;20038;-80
2022/12/28 10:39:15;;;;;;;0.70;0.70;;;8.90;99.90;;;;;;5162839;27;20066;-80
2022/12/28 10:41:44;;;;;;;0.20;0.20;;;9.00;99.90;;;;;;5162576;27;20103;-80
2022/12/28 10:44:33;;;;;;;0.38;0.30;;;9.10;99.90;;;;;;5157808;27;20034;-80
2022/12/28 10:47:04;;;;;;;0.30;0.30;;;9.10;99.90;;;;;;5155182;27;20497;-80
2022/12/28 10:49:34;;;;;;;0.28;0.17;;;9.10;99.90;;;;;;5157694;27;20046;-80
2022/12/28 10:52:19;;;;;;;0.20;0.20;;;9.10;99.90;;;;;;5155915;27;20043;-80
2022/12/28 10:54:45;;;;;;;2.40;0.30;;;9.00;99.90;;;;;;5157736;27;20053;-80
2022/12/28 10:57:36;;;;;;;0.52;0.50;;;9.10;99.90;;;;;;5156071;27;20047;-80
2022/12/28 11:00:21;;;;;;;0.28;0.28;;;9.10;99.90;;;;;;5156744;27;20086;-80
2022/12/28 11:02:47;;;;;;;0.10;0.10;;;9.10;99.90;;;;;;5156613;27;20053;-80
2022/12/28 11:05:24;;;;;;;0.10;0.10;;;9.10;99.90;;;;;;5157361;27;20137;-80
2022/12/28 11:08:03;;;;;;;0.80;0.38;;;9.10;99.90;;;;;;5156018;27;20038;-80
2022/12/28 11:10:31;;;;;;;0.57;0.20;;;9.10;99.90;;;;;;5157726;27;20080;-80
2022/12/28 11:12:59;;;;;;;1.10;1.00;;;9.20;99.90;;;;;;5157543;27;20060;-80
2022/12/28 11:15:28;;;;;;;0.20;0.20;;;9.20;99.90;;;;;;5156649;27;20085;-80
2022/12/28 11:17:57;;;;;;;0.20;0.20;;;9.20;99.90;;;;;;5137159;27;20050;-80
2022/12/28 11:20:35;;;;;;;0.15;0.10;;;9.20;99.90;;;;;;5157588;27;20126;-80
2022/12/28 11:23:05;;;;;;;1.40;0.60;;;9.10;99.90;;;;;;5156848;27;20038;-80
2022/12/28 11:25:33;;;;;;;0.03;0.03;;;9.20;99.90;;;;;;5157070;27;20112;-80
2022/12/28 11:28:03;;;;;;;0.10;0.10;;;9.20;99.90;;;;;;5137992;27;20050;-81
2022/12/28 11:30:30;;;;;;;0.00;0.00;;;9.20;99.90;;;;;;5155946;27;20042;-80
2022/12/28 11:32:58;;;;;;;0.10;0.10;;;9.20;99.90;;;;;;5156855;27;20035;-80
2022/12/28 11:35:33;;;;;;;0.15;0.15;;;9.20;99.90;;;;;;5156463;27;20074;-80
2022/12/28 11:38:02;;;;;;;0.65;0.10;;;9.20;99.90;;;;;;5155091;27;20035;-80
2022/12/28 11:40:43;;;;;;;0.00;0.00;;;9.20;99.90;;;;;;5158214;27;20068;-81
2022/12/28 11:43:27;;;;;;;0.10;0.10;;;9.20;99.90;;;;;;5159357;27;20069;-80
2022/12/28 11:45:56;;;;;;;0.32;0.28;;;9.20;99.90;;;;;;5158195;27;20443;-81
2022/12/28 11:48:40;;;;;;;0.13;0.13;;;9.90;99.90;;;;;;5156961;27;20054;-81
2022/12/28 11:51:17;;;;;;;0.57;0.43;;;9.20;99.90;;;;;;5157560;27;20316;-81
2022/12/28 11:53:45;;;;;;;0.10;0.10;;;9.20;99.90;;;;;;5157031;27;20124;-80
2022/12/28 11:56:19;;;;;;;0.00;0.00;;;9.20;99.90;;;;;;5156328;27;20054;-80
2022/12/28 11:59:18;;;;;;;0.20;0.10;;;9.20;99.90;;;;;;5157746;27;20060;-80
2022/12/28 12:01:44;;;;;;;0.00;0.00;;;9.20;99.90;;;;;;5154910;27;20046;-80
2022/12/28 12:04:25;;;;;;;0.20;0.20;;;9.10;99.90;;;;;;5154937;27;20085;-81
2022/12/28 12:06:50;;;;;;;0.40;0.20;;;9.20;99.90;;;;;;5153010;27;20405;-81
2022/12/28 12:09:26;;;;;;;0.00;0.00;;;9.10;99.90;;;;;;5154553;27;20047;-81
2022/12/28 12:11:56;;;;;;;0.00;0.00;;;9.10;99.90;;;;;;5154406;27;20061;-81
2022/12/28 12:14:30;;;;;;;0.00;0.00;;;9.20;99.90;;;;;;5154360;27;20043;-81
2022/12/28 12:17:02;;;;;;;0.00;0.00;;;9.10;99.90;;;;;;5152399;27;20122;-81
2022/12/28 12:19:34;;;;;;;0.28;0.28;;;9.10;99.90;;;;;;5157307;27;20039;-81
2022/12/28 12:22:14;;;;;;;0.08;0.08;;;9.10;99.90;;;;;;5153002;27;20524;-81
2022/12/28 12:24:48;;;;;;;0.00;0.00;;;9.10;99.90;;;;;;5154053;27;20043;-81
2022/12/28 12:27:19;;;;;;;0.08;0.08;;;9.10;99.90;;;;;;5154305;27;20066;-81
2022/12/28 12:29:55;;;;;;;0.00;0.00;;;9.20;99.90;;;;;;5153081;27;20039;-81
2022/12/28 12:32:38;;;;;;;0.10;0.10;;;9.10;99.90;;;;;;5135250;27;20058;-81
2022/12/28 12:35:05;;;;;;;0.43;0.43;;;9.10;99.90;;;;;;5153947;27;20062;-81
2022/12/28 12:38:01;;;;;;;0.00;0.00;;;9.10;99.90;;;;;;5153965;27;20543;-81
2022/12/28 12:41:04;;;;;;;0.50;0.50;;;9.20;99.90;;;;;;5149957;27;20078;-81
2022/12/28 12:43:44;;;;;;;0.45;0.30;;;9.10;99.90;;;;;;5152087;27;20039;-81
2022/12/28 12:46:34;;;;;;;0.05;0.05;;;9.10;99.90;;;;;;5153920;27;20393;-81
2022/12/28 12:49:17;;;;;;;0.10;0.10;;;9.10;99.90;;;;;;5149807;27;20503;-81
2022/12/28 12:52:14;;;;;;;0.20;0.20;;;9.10;99.90;;;;;;5153319;27;20078;-81
2022/12/28 12:55:06;;;;;;;0.57;0.28;;;9.10;99.90;;;;;;5150960;27;20405;-81
2022/12/28 12:57:54;;;;;;;0.15;0.15;;;9.10;99.90;;;;;;5151251;27;20316;-82
2022/12/28 13:00:21;;;;;;;0.25;0.25;;;9.10;99.90;;;;;;5144073;27;20553;-82
2022/12/28 13:03:03;;;;;;;0.00;0.00;;;9.10;99.90;;;;;;5152671;27;20053;-82
2022/12/28 13:05:30;;;;;;;0.10;0.10;;;9.00;99.90;;;;;;5147128;27;20393;-82
2022/12/28 13:07:57;;;;;;;0.52;0.20;;;10.30;99.90;;;;;;5150614;27;20058;-82
2022/12/28 13:10:29;;;;;;;0.00;0.00;;;9.10;99.90;;;;;;5151380;27;20498;-82
2022/12/28 13:12:58;;;;;;;0.00;0.00;;;9.10;99.90;;;;;;5150711;27;20500;-82
2022/12/28 13:15:24;;;;;;;0.20;0.13;;;9.00;99.90;;;;;;5151324;27;20524;-82
2022/12/28 13:17:59;;;;;;;0.10;0.10;;;9.00;99.90;;;;;;5152588;27;20054;-82
2022/12/28 13:20:24;;;;;;;0.00;0.00;;;9.00;99.90;;;;;;5151534;27;20125;-81
2022/12/28 13:22:50;;;;;;;0.20;0.20;;;9.00;99.90;;;;;;5147041;27;20610;-82
2022/12/28 13:25:45;;;;;;;0.20;0.20;;;9.00;99.90;;;;;;5154660;27;20094;-81
2022/12/28 13:28:22;;;;;;;0.00;0.00;;;9.00;99.90;;;;;;5148237;27;20413;-81
2022/12/28 13:30:56;;;;;;;;;;;9.00;99.90;;;;;;5159134;27;20479;-82
2022/12/28 13:33:22;;;;;;;0.00;0.00;;;9.00;99.90;;;;;;5154102;27;20396;-82
2022/12/28 13:35:48;;;;;;;0.22;0.22;;;8.90;99.90;;;;;;5156883;27;20054;-82
2022/12/28 13:38:17;;;;;;;0.00;0.00;;;8.90;99.90;;;;;;5155542;27;20093;-81
2022/12/28 13:40:51;;;;;;;0.00;0.00;;;8.90;99.90;;;;;;5156528;27;20050;-82
2022/12/28 13:43:35;;;;;;;0.00;0.00;;;8.90;99.90;;;;;;5158162;27;20054;-81